Terminal Aerodrome Forecast
Issued by NWS Huntsville, AL

Home | Current Version | Previous Version | Text Only | Print | Product List | Glossary On
Versions: 1 2 3 4 5 6 7 8 9 10 11 12 13 14 15 16
000
FTUS44 KHUN 201127
TAFHSV
TAF
KHSV 201127Z 2012/2112 VRB03KT P6SM SCT150
     FM201500 16004KT P6SM SCT050
     FM210100 VRB03KT P6SM FEW050=

USA.gov is the U.S. government's official web portal to all federal, state and local government web resources and services.